sensor_id;sensor_type;location;lat;lon;timestamp;P1;durP1;ratioP1;P2;durP2;ratioP2
78856;SDS011;68207;50.078;19.936;2024-02-14T00:00:35;20.80;;;11.30;;
78856;SDS011;68207;50.078;19.936;2024-02-14T00:03:01;19.90;;;10.90;;
78856;SDS011;68207;50.078;19.936;2024-02-14T00:05:26;19.70;;;11.20;;
78856;SDS011;68207;50.078;19.936;2024-02-14T00:07:51;20.50;;;11.10;;
78856;SDS011;68207;50.078;19.936;2024-02-14T00:10:16;19.70;;;11.50;;
78856;SDS011;68207;50.078;19.936;2024-02-14T00:12:42;22.90;;;12.00;;
78856;SDS011;68207;50.078;19.936;2024-02-14T00:15:07;22.00;;;11.90;;
78856;SDS011;68207;50.078;19.936;2024-02-14T00:17:33;20.50;;;11.70;;
78856;SDS011;68207;50.078;19.936;2024-02-14T00:19:59;21.20;;;13.00;;
78856;SDS011;68207;50.078;19.936;2024-02-14T00:22:24;21.40;;;11.90;;
78856;SDS011;68207;50.078;19.936;2024-02-14T00:24:49;19.30;;;11.90;;
78856;SDS011;68207;50.078;19.936;2024-02-14T00:27:15;19.80;;;12.10;;
78856;SDS011;68207;50.078;19.936;2024-02-14T00:29:40;21.60;;;12.50;;
78856;SDS011;68207;50.078;19.936;2024-02-14T00:32:05;22.10;;;13.50;;
78856;SDS011;68207;50.078;19.936;2024-02-14T00:34:30;21.60;;;13.50;;
78856;SDS011;68207;50.078;19.936;2024-02-14T00:36:56;23.20;;;13.00;;
78856;SDS011;68207;50.078;19.936;2024-02-14T00:39:21;26.60;;;15.50;;
78856;SDS011;68207;50.078;19.936;2024-02-14T00:41:46;22.70;;;13.90;;
78856;SDS011;68207;50.078;19.936;2024-02-14T00:44:12;23.80;;;12.50;;
78856;SDS011;68207;50.078;19.936;2024-02-14T00:46:37;26.20;;;13.60;;
78856;SDS011;68207;50.078;19.936;2024-02-14T00:49:02;21.40;;;13.20;;
78856;SDS011;68207;50.078;19.936;2024-02-14T00:51:28;23.30;;;13.80;;
78856;SDS011;68207;50.078;19.936;2024-02-14T00:53:53;22.30;;;13.30;;
78856;SDS011;68207;50.078;19.936;2024-02-14T00:56:18;24.70;;;14.80;;
78856;SDS011;68207;50.078;19.936;2024-02-14T00:58:44;24.70;;;14.00;;
78856;SDS011;68207;50.078;19.936;2024-02-14T01:01:09;23.30;;;14.00;;
78856;SDS011;68207;50.078;19.936;2024-02-14T01:03:34;23.60;;;13.60;;
78856;SDS011;68207;50.078;19.936;2024-02-14T01:05:59;23.50;;;13.60;;
78856;SDS011;68207;50.078;19.936;2024-02-14T01:08:25;26.10;;;14.60;;
78856;SDS011;68207;50.078;19.936;2024-02-14T01:10:50;22.30;;;13.40;;
78856;SDS011;68207;50.078;19.936;2024-02-14T01:13:16;25.40;;;14.50;;
78856;SDS011;68207;50.078;19.936;2024-02-14T01:15:42;22.90;;;14.20;;
78856;SDS011;68207;50.078;19.936;2024-02-14T01:18:07;23.10;;;13.50;;
78856;SDS011;68207;50.078;19.936;2024-02-14T01:20:32;25.90;;;14.90;;
78856;SDS011;68207;50.078;19.936;2024-02-14T01:22:57;26.70;;;14.60;;
78856;SDS011;68207;50.078;19.936;2024-02-14T01:25:23;27.10;;;16.00;;
78856;SDS011;68207;50.078;19.936;2024-02-14T01:27:48;25.80;;;14.90;;
78856;SDS011;68207;50.078;19.936;2024-02-14T01:30:14;26.70;;;15.60;;
78856;SDS011;68207;50.078;19.936;2024-02-14T01:32:39;25.40;;;14.80;;
78856;SDS011;68207;50.078;19.936;2024-02-14T01:35:05;25.60;;;14.50;;
78856;SDS011;68207;50.078;19.936;2024-02-14T01:37:30;29.50;;;16.90;;
78856;SDS011;68207;50.078;19.936;2024-02-14T01:39:55;26.00;;;15.70;;
78856;SDS011;68207;50.078;19.936;2024-02-14T01:42:20;25.00;;;16.40;;
78856;SDS011;68207;50.078;19.936;2024-02-14T01:44:45;29.20;;;16.60;;
78856;SDS011;68207;50.078;19.936;2024-02-14T01:47:10;27.80;;;16.90;;
78856;SDS011;68207;50.078;19.936;2024-02-14T01:49:37;28.30;;;16.50;;
78856;SDS011;68207;50.078;19.936;2024-02-14T01:52:03;30.20;;;16.80;;
78856;SDS011;68207;50.078;19.936;2024-02-14T01:54:31;26.50;;;16.40;;
78856;SDS011;68207;50.078;19.936;2024-02-14T01:56:56;30.40;;;17.40;;
78856;SDS011;68207;50.078;19.936;2024-02-14T01:59:23;26.10;;;16.60;;
78856;SDS011;68207;50.078;19.936;2024-02-14T02:01:48;31.00;;;17.60;;
78856;SDS011;68207;50.078;19.936;2024-02-14T02:04:14;28.90;;;16.80;;
78856;SDS011;68207;50.078;19.936;2024-02-14T02:06:39;27.50;;;16.40;;
78856;SDS011;68207;50.078;19.936;2024-02-14T02:09:06;27.10;;;15.90;;
78856;SDS011;68207;50.078;19.936;2024-02-14T02:11:41;24.80;;;16.30;;
78856;SDS011;68207;50.078;19.936;2024-02-14T02:14:07;30.90;;;17.70;;
78856;SDS011;68207;50.078;19.936;2024-02-14T02:16:32;28.20;;;16.80;;
78856;SDS011;68207;50.078;19.936;2024-02-14T02:18:58;28.00;;;16.80;;
78856;SDS011;68207;50.078;19.936;2024-02-14T02:21:23;27.20;;;16.40;;
78856;SDS011;68207;50.078;19.936;2024-02-14T02:23:49;26.40;;;15.80;;
78856;SDS011;68207;50.078;19.936;2024-02-14T02:26:14;26.90;;;16.00;;
78856;SDS011;68207;50.078;19.936;2024-02-14T02:28:39;29.90;;;17.50;;
78856;SDS011;68207;50.078;19.936;2024-02-14T02:31:04;28.90;;;17.40;;
78856;SDS011;68207;50.078;19.936;2024-02-14T02:33:30;29.80;;;17.80;;
78856;SDS011;68207;50.078;19.936;2024-02-14T02:35:55;28.50;;;17.00;;
78856;SDS011;68207;50.078;19.936;2024-02-14T02:38:20;30.80;;;18.00;;
78856;SDS011;68207;50.078;19.936;2024-02-14T02:40:46;29.40;;;17.60;;
78856;SDS011;68207;50.078;19.936;2024-02-14T02:43:12;30.20;;;17.80;;
78856;SDS011;68207;50.078;19.936;2024-02-14T02:45:37;32.80;;;18.00;;
78856;SDS011;68207;50.078;19.936;2024-02-14T02:48:03;29.80;;;17.30;;
78856;SDS011;68207;50.078;19.936;2024-02-14T02:50:28;31.30;;;17.70;;
78856;SDS011;68207;50.078;19.936;2024-02-14T02:52:55;28.30;;;18.20;;
78856;SDS011;68207;50.078;19.936;2024-02-14T02:55:20;29.30;;;17.70;;
78856;SDS011;68207;50.078;19.936;2024-02-14T02:57:45;29.70;;;18.00;;
78856;SDS011;68207;50.078;19.936;2024-02-14T03:00:10;28.70;;;17.40;;
78856;SDS011;68207;50.078;19.936;2024-02-14T03:02:37;29.40;;;17.00;;
78856;SDS011;68207;50.078;19.936;2024-02-14T03:05:12;28.20;;;17.20;;
78856;SDS011;68207;50.078;19.936;2024-02-14T03:07:45;31.30;;;18.20;;
78856;SDS011;68207;50.078;19.936;2024-02-14T03:10:12;26.10;;;16.70;;
78856;SDS011;68207;50.078;19.936;2024-02-14T03:12:38;31.10;;;18.60;;
78856;SDS011;68207;50.078;19.936;2024-02-14T03:15:04;27.20;;;16.40;;
78856;SDS011;68207;50.078;19.936;2024-02-14T03:17:30;30.10;;;17.40;;
78856;SDS011;68207;50.078;19.936;2024-02-14T03:19:55;30.80;;;17.60;;
78856;SDS011;68207;50.078;19.936;2024-02-14T03:22:21;32.70;;;17.30;;
78856;SDS011;68207;50.078;19.936;2024-02-14T03:24:47;30.70;;;17.40;;
78856;SDS011;68207;50.078;19.936;2024-02-14T03:27:12;33.20;;;17.30;;
78856;SDS011;68207;50.078;19.936;2024-02-14T03:29:38;29.70;;;16.50;;
78856;SDS011;68207;50.078;19.936;2024-02-14T03:32:04;29.70;;;17.20;;
78856;SDS011;68207;50.078;19.936;2024-02-14T03:34:29;30.70;;;18.20;;
78856;SDS011;68207;50.078;19.936;2024-02-14T03:36:55;28.80;;;18.10;;
78856;SDS011;68207;50.078;19.936;2024-02-14T03:39:20;27.80;;;16.20;;
78856;SDS011;68207;50.078;19.936;2024-02-14T03:41:47;30.40;;;17.20;;
78856;SDS011;68207;50.078;19.936;2024-02-14T03:44:12;27.60;;;16.80;;
78856;SDS011;68207;50.078;19.936;2024-02-14T03:46:38;30.50;;;18.00;;
78856;SDS011;68207;50.078;19.936;2024-02-14T03:49:03;31.60;;;17.90;;
78856;SDS011;68207;50.078;19.936;2024-02-14T03:51:28;28.30;;;17.00;;
78856;SDS011;68207;50.078;19.936;2024-02-14T03:53:54;29.90;;;19.30;;
78856;SDS011;68207;50.078;19.936;2024-02-14T03:56:19;29.80;;;16.80;;
78856;SDS011;68207;50.078;19.936;2024-02-14T03:58:44;33.20;;;17.90;;
78856;SDS011;68207;50.078;19.936;2024-02-14T04:01:12;29.60;;;18.60;;
78856;SDS011;68207;50.078;19.936;2024-02-14T04:03:37;33.00;;;18.30;;
78856;SDS011;68207;50.078;19.936;2024-02-14T04:06:02;30.30;;;18.50;;
78856;SDS011;68207;50.078;19.936;2024-02-14T04:08:27;31.90;;;18.10;;
78856;SDS011;68207;50.078;19.936;2024-02-14T04:13:19;32.30;;;19.50;;
78856;SDS011;68207;50.078;19.936;2024-02-14T04:15:45;33.60;;;19.70;;
78856;SDS011;68207;50.078;19.936;2024-02-14T04:18:11;34.90;;;19.90;;
78856;SDS011;68207;50.078;19.936;2024-02-14T04:20:36;31.30;;;19.20;;
78856;SDS011;68207;50.078;19.936;2024-02-14T04:23:01;38.90;;;21.00;;
78856;SDS011;68207;50.078;19.936;2024-02-14T04:25:26;35.80;;;20.50;;
78856;SDS011;68207;50.078;19.936;2024-02-14T04:27:52;39.10;;;21.00;;
78856;SDS011;68207;50.078;19.936;2024-02-14T04:30:17;36.20;;;20.60;;
78856;SDS011;68207;50.078;19.936;2024-02-14T04:32:42;34.20;;;20.60;;
78856;SDS011;68207;50.078;19.936;2024-02-14T04:35:08;41.10;;;20.00;;
78856;SDS011;68207;50.078;19.936;2024-02-14T04:37:33;37.40;;;20.70;;
78856;SDS011;68207;50.078;19.936;2024-02-14T04:39:58;36.00;;;20.00;;
78856;SDS011;68207;50.078;19.936;2024-02-14T04:42:24;32.50;;;19.10;;
78856;SDS011;68207;50.078;19.936;2024-02-14T04:44:49;32.50;;;19.20;;
78856;SDS011;68207;50.078;19.936;2024-02-14T04:47:14;31.10;;;18.70;;
78856;SDS011;68207;50.078;19.936;2024-02-14T04:49:40;32.40;;;19.40;;
78856;SDS011;68207;50.078;19.936;2024-02-14T04:52:05;30.30;;;17.60;;
78856;SDS011;68207;50.078;19.936;2024-02-14T04:54:32;37.40;;;21.20;;
78856;SDS011;68207;50.078;19.936;2024-02-14T04:56:57;36.00;;;19.40;;
78856;SDS011;68207;50.078;19.936;2024-02-14T04:59:22;31.80;;;19.30;;
78856;SDS011;68207;50.078;19.936;2024-02-14T05:01:48;34.50;;;19.40;;
78856;SDS011;68207;50.078;19.936;2024-02-14T05:04:13;33.90;;;20.40;;
78856;SDS011;68207;50.078;19.936;2024-02-14T05:06:38;33.90;;;20.30;;
78856;SDS011;68207;50.078;19.936;2024-02-14T05:09:04;33.60;;;19.50;;
78856;SDS011;68207;50.078;19.936;2024-02-14T05:11:30;36.80;;;21.10;;
78856;SDS011;68207;50.078;19.936;2024-02-14T05:13:55;41.00;;;22.70;;
78856;SDS011;68207;50.078;19.936;2024-02-14T05:16:20;39.70;;;22.70;;
78856;SDS011;68207;50.078;19.936;2024-02-14T05:18:45;41.00;;;23.00;;
78856;SDS011;68207;50.078;19.936;2024-02-14T05:21:11;41.20;;;22.00;;
78856;SDS011;68207;50.078;19.936;2024-02-14T05:23:36;40.80;;;22.50;;
78856;SDS011;68207;50.078;19.936;2024-02-14T05:26:04;40.50;;;21.90;;
78856;SDS011;68207;50.078;19.936;2024-02-14T05:28:29;39.10;;;21.10;;
78856;SDS011;68207;50.078;19.936;2024-02-14T05:30:56;39.30;;;22.50;;
78856;SDS011;68207;50.078;19.936;2024-02-14T05:33:21;42.10;;;21.90;;
78856;SDS011;68207;50.078;19.936;2024-02-14T05:35:50;35.60;;;21.10;;
78856;SDS011;68207;50.078;19.936;2024-02-14T05:38:15;35.70;;;22.00;;
78856;SDS011;68207;50.078;19.936;2024-02-14T05:40:40;36.00;;;21.80;;
78856;SDS011;68207;50.078;19.936;2024-02-14T05:43:08;32.00;;;21.50;;
78856;SDS011;68207;50.078;19.936;2024-02-14T05:45:33;40.50;;;22.90;;
78856;SDS011;68207;50.078;19.936;2024-02-14T05:47:58;35.30;;;21.90;;
78856;SDS011;68207;50.078;19.936;2024-02-14T05:50:24;40.60;;;21.60;;
78856;SDS011;68207;50.078;19.936;2024-02-14T05:52:49;40.50;;;22.30;;
78856;SDS011;68207;50.078;19.936;2024-02-14T05:55:14;41.40;;;23.60;;
78856;SDS011;68207;50.078;19.936;2024-02-14T05:57:40;39.00;;;23.30;;
78856;SDS011;68207;50.078;19.936;2024-02-14T06:00:05;41.10;;;22.80;;
78856;SDS011;68207;50.078;19.936;2024-02-14T06:02:30;42.20;;;23.60;;
78856;SDS011;68207;50.078;19.936;2024-02-14T06:04:55;40.70;;;22.80;;
78856;SDS011;68207;50.078;19.936;2024-02-14T06:07:21;39.00;;;23.80;;
78856;SDS011;68207;50.078;19.936;2024-02-14T06:09:46;44.40;;;24.90;;
78856;SDS011;68207;50.078;19.936;2024-02-14T06:12:11;42.20;;;23.60;;
78856;SDS011;68207;50.078;19.936;2024-02-14T06:14:36;45.70;;;24.00;;
78856;SDS011;68207;50.078;19.936;2024-02-14T06:17:01;41.90;;;24.50;;
78856;SDS011;68207;50.078;19.936;2024-02-14T06:19:27;48.00;;;25.60;;
78856;SDS011;68207;50.078;19.936;2024-02-14T06:21:52;45.40;;;25.00;;
78856;SDS011;68207;50.078;19.936;2024-02-14T06:24:17;42.60;;;23.90;;
78856;SDS011;68207;50.078;19.936;2024-02-14T06:26:44;43.20;;;24.10;;
78856;SDS011;68207;50.078;19.936;2024-02-14T06:29:09;46.50;;;24.40;;
78856;SDS011;68207;50.078;19.936;2024-02-14T06:31:34;42.20;;;23.40;;
78856;SDS011;68207;50.078;19.936;2024-02-14T06:33:59;44.10;;;23.00;;
78856;SDS011;68207;50.078;19.936;2024-02-14T06:36:24;44.10;;;23.60;;
78856;SDS011;68207;50.078;19.936;2024-02-14T06:38:49;43.40;;;24.30;;
78856;SDS011;68207;50.078;19.936;2024-02-14T06:41:15;42.40;;;24.10;;
78856;SDS011;68207;50.078;19.936;2024-02-14T06:43:41;41.10;;;23.70;;
78856;SDS011;68207;50.078;19.936;2024-02-14T06:46:06;40.20;;;23.60;;
78856;SDS011;68207;50.078;19.936;2024-02-14T06:48:31;42.60;;;23.00;;
78856;SDS011;68207;50.078;19.936;2024-02-14T06:50:56;44.20;;;24.10;;
78856;SDS011;68207;50.078;19.936;2024-02-14T06:53:21;43.30;;;23.50;;
78856;SDS011;68207;50.078;19.936;2024-02-14T06:55:47;37.30;;;23.40;;
78856;SDS011;68207;50.078;19.936;2024-02-14T06:58:12;42.30;;;24.20;;
78856;SDS011;68207;50.078;19.936;2024-02-14T07:00:37;42.00;;;25.60;;
78856;SDS011;68207;50.078;19.936;2024-02-14T07:03:02;42.20;;;24.60;;
78856;SDS011;68207;50.078;19.936;2024-02-14T07:05:27;46.50;;;25.70;;
78856;SDS011;68207;50.078;19.936;2024-02-14T07:07:54;45.80;;;25.90;;
78856;SDS011;68207;50.078;19.936;2024-02-14T07:10:19;44.20;;;23.80;;
78856;SDS011;68207;50.078;19.936;2024-02-14T07:12:44;40.30;;;22.90;;
78856;SDS011;68207;50.078;19.936;2024-02-14T07:15:09;43.00;;;23.60;;
78856;SDS011;68207;50.078;19.936;2024-02-14T07:17:34;37.30;;;22.30;;
78856;SDS011;68207;50.078;19.936;2024-02-14T07:20:00;40.10;;;22.50;;
78856;SDS011;68207;50.078;19.936;2024-02-14T07:22:25;38.20;;;22.00;;
78856;SDS011;68207;50.078;19.936;2024-02-14T07:24:51;32.20;;;19.60;;
78856;SDS011;68207;50.078;19.936;2024-02-14T07:27:16;30.60;;;16.70;;
78856;SDS011;68207;50.078;19.936;2024-02-14T07:29:45;26.50;;;17.70;;
78856;SDS011;68207;50.078;19.936;2024-02-14T07:32:10;29.00;;;16.00;;
78856;SDS011;68207;50.078;19.936;2024-02-14T07:34:38;27.80;;;16.20;;
78856;SDS011;68207;50.078;19.936;2024-02-14T07:37:03;26.80;;;15.40;;
78856;SDS011;68207;50.078;19.936;2024-02-14T07:39:28;26.20;;;16.90;;
78856;SDS011;68207;50.078;19.936;2024-02-14T07:41:54;29.60;;;15.90;;
78856;SDS011;68207;50.078;19.936;2024-02-14T07:44:19;28.40;;;16.80;;
78856;SDS011;68207;50.078;19.936;2024-02-14T07:46:44;30.60;;;18.30;;
78856;SDS011;68207;50.078;19.936;2024-02-14T07:49:10;25.30;;;16.50;;
78856;SDS011;68207;50.078;19.936;2024-02-14T07:51:35;27.00;;;17.30;;
78856;SDS011;68207;50.078;19.936;2024-02-14T07:54:03;28.70;;;17.70;;
78856;SDS011;68207;50.078;19.936;2024-02-14T07:56:29;27.70;;;18.00;;
78856;SDS011;68207;50.078;19.936;2024-02-14T07:58:54;27.30;;;16.90;;
78856;SDS011;68207;50.078;19.936;2024-02-14T08:01:19;24.70;;;15.90;;
78856;SDS011;68207;50.078;19.936;2024-02-14T08:03:44;27.30;;;16.80;;
78856;SDS011;68207;50.078;19.936;2024-02-14T08:06:11;28.10;;;16.40;;
78856;SDS011;68207;50.078;19.936;2024-02-14T08:08:36;27.50;;;17.00;;
78856;SDS011;68207;50.078;19.936;2024-02-14T08:11:02;26.50;;;16.40;;
78856;SDS011;68207;50.078;19.936;2024-02-14T08:13:27;30.80;;;16.80;;
78856;SDS011;68207;50.078;19.936;2024-02-14T08:15:52;29.00;;;17.20;;
78856;SDS011;68207;50.078;19.936;2024-02-14T08:18:17;22.10;;;14.40;;
78856;SDS011;68207;50.078;19.936;2024-02-14T08:20:42;22.20;;;13.00;;
78856;SDS011;68207;50.078;19.936;2024-02-14T08:23:08;19.50;;;13.20;;
78856;SDS011;68207;50.078;19.936;2024-02-14T08:25:33;23.80;;;12.60;;
78856;SDS011;68207;50.078;19.936;2024-02-14T08:27:58;23.10;;;12.60;;
78856;SDS011;68207;50.078;19.936;2024-02-14T08:30:23;18.40;;;11.70;;
78856;SDS011;68207;50.078;19.936;2024-02-14T08:32:48;20.20;;;13.50;;
78856;SDS011;68207;50.078;19.936;2024-02-14T08:35:14;17.70;;;11.40;;
78856;SDS011;68207;50.078;19.936;2024-02-14T08:37:39;18.60;;;12.10;;
78856;SDS011;68207;50.078;19.936;2024-02-14T08:40:05;20.50;;;13.10;;
78856;SDS011;68207;50.078;19.936;2024-02-14T08:42:31;23.20;;;13.10;;
78856;SDS011;68207;50.078;19.936;2024-02-14T08:44:56;19.60;;;12.40;;
78856;SDS011;68207;50.078;19.936;2024-02-14T08:47:21;20.80;;;12.60;;
78856;SDS011;68207;50.078;19.936;2024-02-14T08:49:47;18.30;;;11.50;;
78856;SDS011;68207;50.078;19.936;2024-02-14T08:52:12;19.80;;;13.20;;
78856;SDS011;68207;50.078;19.936;2024-02-14T08:54:37;17.80;;;12.40;;
78856;SDS011;68207;50.078;19.936;2024-02-14T08:57:02;19.80;;;13.00;;
78856;SDS011;68207;50.078;19.936;2024-02-14T08:59:28;19.40;;;12.70;;
78856;SDS011;68207;50.078;19.936;2024-02-14T09:01:53;19.30;;;11.90;;
78856;SDS011;68207;50.078;19.936;2024-02-14T09:04:19;16.10;;;10.90;;
78856;SDS011;68207;50.078;19.936;2024-02-14T09:06:44;16.30;;;11.10;;
78856;SDS011;68207;50.078;19.936;2024-02-14T09:09:09;19.20;;;12.30;;
78856;SDS011;68207;50.078;19.936;2024-02-14T09:11:35;17.60;;;13.00;;
78856;SDS011;68207;50.078;19.936;2024-02-14T09:14:00;15.30;;;10.70;;
78856;SDS011;68207;50.078;19.936;2024-02-14T09:16:31;14.50;;;10.50;;
78856;SDS011;68207;50.078;19.936;2024-02-14T09:18:56;16.90;;;11.70;;
78856;SDS011;68207;50.078;19.936;2024-02-14T09:23:48;12.50;;;7.40;;
78856;SDS011;68207;50.078;19.936;2024-02-14T09:26:13;11.20;;;7.30;;
78856;SDS011;68207;50.078;19.936;2024-02-14T09:28:42;11.50;;;7.50;;
78856;SDS011;68207;50.078;19.936;2024-02-14T09:31:07;9.20;;;6.50;;
78856;SDS011;68207;50.078;19.936;2024-02-14T09:33:34;6.80;;;5.00;;
78856;SDS011;68207;50.078;19.936;2024-02-14T09:36:00;5.20;;;2.70;;
78856;SDS011;68207;50.078;19.936;2024-02-14T09:38:25;8.20;;;5.70;;
78856;SDS011;68207;50.078;19.936;2024-02-14T09:40:50;9.00;;;4.60;;
78856;SDS011;68207;50.078;19.936;2024-02-14T09:43:25;7.00;;;3.20;;
78856;SDS011;68207;50.078;19.936;2024-02-14T09:45:53;10.00;;;3.80;;
78856;SDS011;68207;50.078;19.936;2024-02-14T09:48:19;4.40;;;2.10;;
78856;SDS011;68207;50.078;19.936;2024-02-14T09:50:44;4.00;;;1.70;;
78856;SDS011;68207;50.078;19.936;2024-02-14T09:53:10;5.30;;;2.40;;
78856;SDS011;68207;50.078;19.936;2024-02-14T09:55:35;3.80;;;2.40;;
78856;SDS011;68207;50.078;19.936;2024-02-14T09:58:01;7.10;;;3.60;;
78856;SDS011;68207;50.078;19.936;2024-02-14T10:00:29;3.80;;;2.20;;
78856;SDS011;68207;50.078;19.936;2024-02-14T10:02:56;3.30;;;1.90;;
78856;SDS011;68207;50.078;19.936;2024-02-14T10:05:21;5.10;;;3.00;;
78856;SDS011;68207;50.078;19.936;2024-02-14T10:07:46;7.10;;;3.40;;
78856;SDS011;68207;50.078;19.936;2024-02-14T10:10:11;5.50;;;3.30;;
78856;SDS011;68207;50.078;19.936;2024-02-14T10:12:37;5.40;;;3.30;;
78856;SDS011;68207;50.078;19.936;2024-02-14T10:15:03;6.10;;;3.90;;
78856;SDS011;68207;50.078;19.936;2024-02-14T10:17:29;5.30;;;3.30;;
78856;SDS011;68207;50.078;19.936;2024-02-14T10:19:57;4.50;;;2.80;;
78856;SDS011;68207;50.078;19.936;2024-02-14T10:22:23;5.90;;;3.30;;
78856;SDS011;68207;50.078;19.936;2024-02-14T10:24:48;5.00;;;3.50;;
78856;SDS011;68207;50.078;19.936;2024-02-14T10:27:15;5.00;;;3.30;;
78856;SDS011;68207;50.078;19.936;2024-02-14T10:29:40;5.80;;;3.30;;
78856;SDS011;68207;50.078;19.936;2024-02-14T10:32:05;6.50;;;3.60;;
78856;SDS011;68207;50.078;19.936;2024-02-14T10:34:30;5.50;;;3.10;;
78856;SDS011;68207;50.078;19.936;2024-02-14T10:36:56;7.10;;;3.80;;
78856;SDS011;68207;50.078;19.936;2024-02-14T10:39:22;5.50;;;3.90;;
78856;SDS011;68207;50.078;19.936;2024-02-14T10:41:50;7.40;;;3.90;;
78856;SDS011;68207;50.078;19.936;2024-02-14T10:44:15;5.10;;;3.50;;
78856;SDS011;68207;50.078;19.936;2024-02-14T10:46:40;4.80;;;3.20;;
78856;SDS011;68207;50.078;19.936;2024-02-14T10:49:06;3.60;;;2.60;;
78856;SDS011;68207;50.078;19.936;2024-02-14T10:51:33;4.20;;;3.10;;
78856;SDS011;68207;50.078;19.936;2024-02-14T10:54:00;4.70;;;3.50;;
78856;SDS011;68207;50.078;19.936;2024-02-14T10:56:28;6.80;;;3.40;;
78856;SDS011;68207;50.078;19.936;2024-02-14T10:58:55;5.70;;;3.20;;
78856;SDS011;68207;50.078;19.936;2024-02-14T11:01:22;5.30;;;3.50;;
78856;SDS011;68207;50.078;19.936;2024-02-14T11:03:49;5.70;;;3.10;;
78856;SDS011;68207;50.078;19.936;2024-02-14T11:08:40;5.80;;;3.40;;
78856;SDS011;68207;50.078;19.936;2024-02-14T11:11:06;5.10;;;3.10;;
78856;SDS011;68207;50.078;19.936;2024-02-14T11:13:31;3.90;;;2.80;;
78856;SDS011;68207;50.078;19.936;2024-02-14T11:15:57;5.00;;;3.20;;
78856;SDS011;68207;50.078;19.936;2024-02-14T11:18:25;5.00;;;2.50;;
78856;SDS011;68207;50.078;19.936;2024-02-14T11:20:51;3.70;;;2.70;;
78856;SDS011;68207;50.078;19.936;2024-02-14T11:23:20;4.90;;;2.60;;
78856;SDS011;68207;50.078;19.936;2024-02-14T11:25:46;6.00;;;3.30;;
78856;SDS011;68207;50.078;19.936;2024-02-14T11:30:39;8.70;;;3.00;;
78856;SDS011;68207;50.078;19.936;2024-02-14T11:33:17;5.50;;;2.80;;
78856;SDS011;68207;50.078;19.936;2024-02-14T11:35:48;4.40;;;2.80;;
78856;SDS011;68207;50.078;19.936;2024-02-14T11:38:18;6.00;;;2.60;;
78856;SDS011;68207;50.078;19.936;2024-02-14T11:40:43;5.70;;;2.70;;
78856;SDS011;68207;50.078;19.936;2024-02-14T11:45:34;6.20;;;3.20;;
78856;SDS011;68207;50.078;19.936;2024-02-14T11:47:59;5.40;;;2.70;;
78856;SDS011;68207;50.078;19.936;2024-02-14T11:50:25;4.90;;;2.60;;
78856;SDS011;68207;50.078;19.936;2024-02-14T11:52:51;4.00;;;2.70;;
78856;SDS011;68207;50.078;19.936;2024-02-14T11:57:41;5.00;;;2.70;;
78856;SDS011;68207;50.078;19.936;2024-02-14T12:00:07;7.20;;;2.90;;
78856;SDS011;68207;50.078;19.936;2024-02-14T12:02:32;5.10;;;2.70;;
78856;SDS011;68207;50.078;19.936;2024-02-14T12:04:58;6.20;;;3.20;;
78856;SDS011;68207;50.078;19.936;2024-02-14T12:07:23;5.30;;;3.10;;
78856;SDS011;68207;50.078;19.936;2024-02-14T12:09:49;6.40;;;2.80;;
78856;SDS011;68207;50.078;19.936;2024-02-14T12:12:15;4.40;;;2.90;;
78856;SDS011;68207;50.078;19.936;2024-02-14T12:14:43;4.10;;;3.10;;
78856;SDS011;68207;50.078;19.936;2024-02-14T12:17:08;5.50;;;3.00;;
78856;SDS011;68207;50.078;19.936;2024-02-14T12:19:34;6.10;;;3.00;;
78856;SDS011;68207;50.078;19.936;2024-02-14T12:22:02;4.90;;;2.70;;
78856;SDS011;68207;50.078;19.936;2024-02-14T12:24:33;4.40;;;2.30;;
78856;SDS011;68207;50.078;19.936;2024-02-14T12:26:58;3.50;;;2.50;;
78856;SDS011;68207;50.078;19.936;2024-02-14T12:29:23;4.00;;;2.40;;
78856;SDS011;68207;50.078;19.936;2024-02-14T12:34:14;4.10;;;2.70;;
78856;SDS011;68207;50.078;19.936;2024-02-14T12:36:39;4.10;;;2.90;;
78856;SDS011;68207;50.078;19.936;2024-02-14T12:41:31;5.00;;;3.20;;
78856;SDS011;68207;50.078;19.936;2024-02-14T12:46:21;5.70;;;2.50;;
78856;SDS011;68207;50.078;19.936;2024-02-14T12:51:13;4.10;;;2.70;;
78856;SDS011;68207;50.078;19.936;2024-02-14T12:53:38;4.00;;;2.50;;
78856;SDS011;68207;50.078;19.936;2024-02-14T12:56:04;5.90;;;2.40;;
78856;SDS011;68207;50.078;19.936;2024-02-14T12:58:29;3.50;;;2.50;;
78856;SDS011;68207;50.078;19.936;2024-02-14T13:00:55;5.40;;;2.70;;
78856;SDS011;68207;50.078;19.936;2024-02-14T13:03:20;4.60;;;3.10;;
78856;SDS011;68207;50.078;19.936;2024-02-14T13:05:46;4.40;;;2.80;;
78856;SDS011;68207;50.078;19.936;2024-02-14T13:08:12;3.90;;;3.10;;
78856;SDS011;68207;50.078;19.936;2024-02-14T13:10:37;5.10;;;3.20;;
78856;SDS011;68207;50.078;19.936;2024-02-14T13:13:02;4.70;;;3.30;;
78856;SDS011;68207;50.078;19.936;2024-02-14T13:15:28;8.00;;;3.10;;
78856;SDS011;68207;50.078;19.936;2024-02-14T13:20:18;4.90;;;3.20;;
78856;SDS011;68207;50.078;19.936;2024-02-14T13:22:43;7.70;;;3.40;;
78856;SDS011;68207;50.078;19.936;2024-02-14T13:25:09;4.70;;;3.10;;
78856;SDS011;68207;50.078;19.936;2024-02-14T13:27:34;6.10;;;3.20;;
78856;SDS011;68207;50.078;19.936;2024-02-14T13:30:00;4.60;;;2.70;;
78856;SDS011;68207;50.078;19.936;2024-02-14T13:32:25;4.40;;;3.00;;
78856;SDS011;68207;50.078;19.936;2024-02-14T13:34:50;5.70;;;3.30;;
78856;SDS011;68207;50.078;19.936;2024-02-14T13:37:15;5.80;;;3.20;;
78856;SDS011;68207;50.078;19.936;2024-02-14T13:39:40;7.80;;;3.20;;
78856;SDS011;68207;50.078;19.936;2024-02-14T13:42:06;6.30;;;2.90;;
78856;SDS011;68207;50.078;19.936;2024-02-14T13:44:32;8.20;;;3.30;;
78856;SDS011;68207;50.078;19.936;2024-02-14T13:46:58;4.50;;;2.90;;
78856;SDS011;68207;50.078;19.936;2024-02-14T13:49:24;5.70;;;3.30;;
78856;SDS011;68207;50.078;19.936;2024-02-14T13:54:16;3.80;;;2.70;;
78856;SDS011;68207;50.078;19.936;2024-02-14T13:56:41;4.40;;;2.90;;
78856;SDS011;68207;50.078;19.936;2024-02-14T13:59:06;5.60;;;3.10;;
78856;SDS011;68207;50.078;19.936;2024-02-14T14:01:31;5.20;;;3.30;;
78856;SDS011;68207;50.078;19.936;2024-02-14T14:03:57;4.10;;;2.80;;
78856;SDS011;68207;50.078;19.936;2024-02-14T14:06:23;11.50;;;3.60;;
78856;SDS011;68207;50.078;19.936;2024-02-14T14:08:49;6.60;;;3.20;;
78856;SDS011;68207;50.078;19.936;2024-02-14T14:11:14;6.30;;;3.40;;
78856;SDS011;68207;50.078;19.936;2024-02-14T14:13:39;4.70;;;3.40;;
78856;SDS011;68207;50.078;19.936;2024-02-14T14:16:04;6.00;;;3.30;;
78856;SDS011;68207;50.078;19.936;2024-02-14T14:18:30;4.60;;;3.40;;
78856;SDS011;68207;50.078;19.936;2024-02-14T14:20:55;5.00;;;3.50;;
78856;SDS011;68207;50.078;19.936;2024-02-14T14:23:20;6.40;;;3.60;;
78856;SDS011;68207;50.078;19.936;2024-02-14T14:25:45;4.10;;;3.30;;
78856;SDS011;68207;50.078;19.936;2024-02-14T14:28:10;5.90;;;3.80;;
78856;SDS011;68207;50.078;19.936;2024-02-14T14:30:36;8.20;;;4.20;;
78856;SDS011;68207;50.078;19.936;2024-02-14T14:33:04;5.70;;;3.60;;
78856;SDS011;68207;50.078;19.936;2024-02-14T14:35:30;5.20;;;3.60;;
78856;SDS011;68207;50.078;19.936;2024-02-14T14:38:01;6.00;;;3.60;;